createdAt,value
2023-01-31T00:00:53.206Z,97735.28
2023-01-31T00:01:56.426Z,97731.31
2023-01-31T00:02:59.934Z,97730.97
2023-01-31T00:04:06.305Z,97729.25
2023-01-31T00:05:09.996Z,97738.72
2023-01-31T00:06:25.401Z,97730.97
2023-01-31T00:07:28.693Z,97726.53
2023-01-31T00:08:31.948Z,97727.22
2023-01-31T00:09:35.151Z,97721.22
2023-01-31T00:10:38.513Z,97721.75
2023-01-31T00:11:41.742Z,97714.91
2023-01-31T00:12:45.147Z,97725.28
2023-01-31T00:13:48.903Z,97733.44
2023-01-31T00:14:52.085Z,97736.56
2023-01-31T00:15:58.971Z,97732.47
2023-01-31T00:17:02.213Z,97735.50
2023-01-31T00:18:05.368Z,97739.91
2023-01-31T00:19:08.420Z,97740.34
2023-01-31T00:20:12.879Z,97742.88
2023-01-31T00:21:25.802Z,97755.22
2023-01-31T00:22:28.929Z,97748.28
2023-01-31T00:23:32.107Z,97754.13
2023-01-31T00:24:35.241Z,97767.87
2023-01-31T00:25:39.030Z,97771.50
2023-01-31T00:26:42.766Z,97783.91
2023-01-31T00:27:46.053Z,97768.47
2023-01-31T00:28:50.913Z,97794.53
2023-01-31T00:29:54.186Z,97771.78
2023-01-31T00:30:58.995Z,97768.13
2023-01-31T00:32:02.257Z,97766.88
2023-01-31T00:33:05.610Z,97757.56
2023-01-31T00:34:09.126Z,97768.91
2023-01-31T00:35:12.306Z,97765.19
2023-01-31T00:36:19.121Z,97765.13
2023-01-31T00:37:22.917Z,97776.16
2023-01-31T00:38:26.089Z,97757.63
2023-01-31T00:39:32.598Z,97763.34
2023-01-31T00:40:36.361Z,97754.03
2023-01-31T00:41:39.807Z,97764.03
2023-01-31T00:42:44.206Z,97766.41
2023-01-31T00:43:47.534Z,97768.97
2023-01-31T00:44:50.727Z,97765.13
2023-01-31T00:45:53.998Z,97760.34
2023-01-31T00:46:57.124Z,97767.81
2023-01-31T00:48:00.219Z,97762.38
2023-01-31T00:49:03.721Z,97751.28
2023-01-31T00:50:07.085Z,97760.00
2023-01-31T00:51:10.266Z,97757.56
2023-01-31T00:52:13.370Z,97771.25
2023-01-31T00:53:18.225Z,97761.69
2023-01-31T00:54:21.379Z,97773.53
2023-01-31T00:55:24.637Z,97765.00
2023-01-31T00:56:27.977Z,97763.56
2023-01-31T00:57:31.362Z,97766.72
2023-01-31T00:58:35.854Z,97772.38
2023-01-31T00:59:38.899Z,97761.81
2023-01-31T01:00:42.201Z,97761.06
2023-01-31T01:01:45.591Z,97757.63
2023-01-31T01:02:48.972Z,97753.72
2023-01-31T01:03:52.888Z,97758.63
2023-01-31T01:04:56.081Z,97759.66
2023-01-31T01:05:59.261Z,97771.41
2023-01-31T01:07:02.481Z,97761.28
2023-01-31T01:08:06.426Z,97758.75
2023-01-31T01:09:09.508Z,97758.91
2023-01-31T01:10:12.697Z,97760.00
2023-01-31T01:11:19.868Z,97762.78
2023-01-31T01:12:23.336Z,97761.19
2023-01-31T01:13:26.353Z,97754.09
2023-01-31T01:14:29.709Z,97757.47
2023-01-31T01:15:34.030Z,97765.16
2023-01-31T01:16:40.132Z,97775.72
2023-01-31T01:17:44.757Z,97762.81
2023-01-31T01:18:49.608Z,97764.19
2023-01-31T01:19:53.757Z,97773.91
2023-01-31T01:20:56.961Z,97786.00
2023-01-31T01:21:59.968Z,97778.75
2023-01-31T01:23:03.227Z,97768.13
2023-01-31T01:24:09.649Z,97764.28
2023-01-31T01:25:12.821Z,97774.87
2023-01-31T01:26:18.863Z,97782.87
2023-01-31T01:27:23.118Z,97772.78
2023-01-31T01:28:28.894Z,97785.69
2023-01-31T01:29:32.429Z,97772.31
2023-01-31T01:30:39.601Z,97781.56
2023-01-31T01:31:44.233Z,97782.34
2023-01-31T01:32:49.074Z,97788.25
2023-01-31T01:33:52.390Z,97804.38
2023-01-31T01:34:55.613Z,97790.69
2023-01-31T01:36:03.670Z,97794.66
2023-01-31T01:37:20.482Z,97791.81
2023-01-31T01:38:23.757Z,97793.53
2023-01-31T01:39:30.532Z,97793.16
2023-01-31T01:40:38.233Z,97786.12
2023-01-31T01:41:41.719Z,97807.00
2023-01-31T01:42:44.965Z,97807.09
2023-01-31T01:43:53.993Z,97805.97
2023-01-31T01:44:59.900Z,97798.72
2023-01-31T01:46:03.180Z,97801.56
2023-01-31T01:47:28.099Z,97804.91
2023-01-31T01:48:31.658Z,97789.31
2023-01-31T01:49:37.997Z,97814.56
2023-01-31T01:50:47.003Z,97804.13
2023-01-31T01:51:54.145Z,97802.22
2023-01-31T01:53:01.946Z,97808.69
2023-01-31T01:54:12.065Z,97814.88
2023-01-31T01:55:25.639Z,97796.81
2023-01-31T01:56:37.827Z,97792.66
2023-01-31T01:57:45.341Z,97794.19
2023-01-31T01:59:05.715Z,97802.69
2023-01-31T02:00:16.591Z,97785.88
2023-01-31T02:01:19.968Z,97806.25
2023-01-31T02:02:23.460Z,97801.84
2023-01-31T02:03:30.936Z,97806.25
2023-01-31T02:04:38.229Z,97803.94
2023-01-31T02:05:52.694Z,97809.19
2023-01-31T02:06:56.043Z,97814.34
2023-01-31T02:08:02.770Z,97799.69
2023-01-31T02:09:16.236Z,97798.31
2023-01-31T02:10:33.990Z,97794.41
2023-01-31T02:11:37.179Z,97792.94
2023-01-31T02:12:43.598Z,97805.94
2023-01-31T02:13:48.100Z,97813.25
2023-01-31T02:14:52.285Z,97812.44
2023-01-31T02:15:56.354Z,97820.09
2023-01-31T02:16:59.364Z,97818.06
2023-01-31T02:18:02.628Z,97821.78
2023-01-31T02:19:11.455Z,97819.69
2023-01-31T02:20:51.598Z,97824.97
2023-01-31T02:22:13.520Z,97830.97
2023-01-31T02:23:25.980Z,97822.56
2023-01-31T02:24:42.860Z,97831.31
2023-01-31T02:26:17.035Z,97842.38
2023-01-31T02:27:58.467Z,97831.50
2023-01-31T02:29:46.646Z,97848.00
2023-01-31T02:31:02.014Z,97848.31
2023-01-31T02:32:32.916Z,97841.63
2023-01-31T02:33:39.145Z,97845.50
2023-01-31T02:35:05.371Z,97857.44
2023-01-31T02:36:36.862Z,97842.44
2023-01-31T02:37:58.503Z,97844.94
2023-01-31T02:39:13.587Z,97857.66
2023-01-31T02:40:36.784Z,97854.25
2023-01-31T02:41:58.382Z,97855.50
2023-01-31T02:43:17.744Z,97852.81
2023-01-31T02:44:49.863Z,97871.34
2023-01-31T02:46:20.897Z,97872.06
2023-01-31T02:47:48.863Z,97867.09
2023-01-31T02:49:00.992Z,97867.81
2023-01-31T02:50:48.469Z,97876.31
2023-01-31T02:52:12.949Z,97867.50
2023-01-31T02:53:25.059Z,97871.19
2023-01-31T02:54:49.900Z,97876.59
2023-01-31T02:56:18.284Z,97875.84
2023-01-31T02:57:22.388Z,97876.03
2023-01-31T02:58:30.610Z,97882.09
2023-01-31T02:59:35.757Z,97878.97
2023-01-31T03:00:42.240Z,97872.06
2023-01-31T03:01:49.006Z,97881.25
2023-01-31T03:02:52.343Z,97882.50
2023-01-31T03:04:00.215Z,97894.94
2023-01-31T03:05:03.877Z,97879.44
2023-01-31T03:06:23.484Z,97879.28
2023-01-31T03:07:29.988Z,97895.91
2023-01-31T03:08:33.327Z,97893.50
2023-01-31T03:09:48.148Z,97880.47
2023-01-31T03:11:10.620Z,97888.75
2023-01-31T03:12:35.626Z,97889.22
2023-01-31T03:13:55.407Z,97898.00
2023-01-31T03:15:14.069Z,97895.97
2023-01-31T03:16:44.880Z,97911.38
2023-01-31T03:18:13.780Z,97900.41
2023-01-31T03:19:24.118Z,97902.31
2023-01-31T03:20:36.787Z,97908.28
2023-01-31T03:22:12.482Z,97908.50
2023-01-31T03:23:20.301Z,97902.88
2023-01-31T03:24:26.641Z,97902.19
2023-01-31T03:25:33.618Z,97923.62
2023-01-31T03:26:40.754Z,97915.28
2023-01-31T03:27:53.184Z,97907.19
2023-01-31T03:29:00.816Z,97909.84
2023-01-31T03:30:36.619Z,97905.00
2023-01-31T03:31:48.002Z,97909.16
2023-01-31T03:32:59.485Z,97909.09
2023-01-31T03:34:12.846Z,97909.16
2023-01-31T03:35:16.720Z,97901.25
2023-01-31T03:36:47.070Z,97912.53
2023-01-31T03:37:53.307Z,97908.31
2023-01-31T03:39:12.051Z,97919.19
2023-01-31T03:40:32.184Z,97906.28
2023-01-31T03:42:08.123Z,97910.34
2023-01-31T03:43:32.520Z,97909.03
2023-01-31T03:44:50.074Z,97913.81
2023-01-31T03:46:17.022Z,97924.75
2023-01-31T03:47:34.232Z,97932.16
2023-01-31T03:48:42.190Z,97927.47
2023-01-31T03:49:49.131Z,97932.81
2023-01-31T03:50:59.253Z,97931.78
2023-01-31T03:52:08.138Z,97927.31
2023-01-31T03:53:18.629Z,97925.44
2023-01-31T03:54:29.985Z,97926.84
2023-01-31T03:56:01.867Z,97930.44
2023-01-31T03:57:17.957Z,97934.09
2023-01-31T03:58:26.660Z,97924.44
2023-01-31T03:59:35.241Z,97930.91
2023-01-31T04:00:42.225Z,97935.00
2023-01-31T04:01:52.489Z,97939.81
2023-01-31T04:03:16.141Z,97941.69
2023-01-31T04:04:29.263Z,97939.69
2023-01-31T04:05:33.701Z,97950.31
2023-01-31T04:06:37.176Z,97942.00
2023-01-31T04:07:41.463Z,97929.41
2023-01-31T04:08:44.624Z,97947.47
2023-01-31T04:09:47.710Z,97933.72
2023-01-31T04:10:51.716Z,97936.53
2023-01-31T04:11:55.052Z,97941.47
2023-01-31T04:12:58.296Z,97941.06
2023-01-31T04:15:10.170Z,97937.25
2023-01-31T04:16:13.568Z,97943.47
2023-01-31T04:17:16.837Z,97947.88
2023-01-31T04:18:20.197Z,97950.13
2023-01-31T04:19:23.723Z,97943.19
2023-01-31T04:20:27.112Z,97948.50
2023-01-31T04:21:30.517Z,97955.94
2023-01-31T04:22:33.605Z,97943.25
2023-01-31T04:23:37.143Z,97953.34
2023-01-31T04:24:40.419Z,97947.00
2023-01-31T04:25:43.483Z,97951.63
2023-01-31T04:26:47.126Z,97957.78
2023-01-31T04:27:51.923Z,97962.72
2023-01-31T04:28:55.120Z,97950.13
2023-01-31T04:29:58.140Z,97959.37
2023-01-31T04:31:01.438Z,97960.44
2023-01-31T04:32:04.978Z,97960.53
2023-01-31T04:33:08.161Z,97951.78
2023-01-31T04:34:11.701Z,97971.41
2023-01-31T04:35:15.027Z,97952.41
2023-01-31T04:36:18.188Z,97970.88
2023-01-31T04:37:21.277Z,97976.03
2023-01-31T04:38:24.457Z,97969.66
2023-01-31T04:39:27.671Z,97976.03
2023-01-31T04:40:30.763Z,97972.41
2023-01-31T04:41:33.921Z,97972.72
2023-01-31T04:42:36.995Z,97972.81
2023-01-31T04:43:40.055Z,97994.47
2023-01-31T04:44:43.148Z,97988.84
2023-01-31T04:45:46.222Z,97986.78
2023-01-31T04:46:49.571Z,97981.19
2023-01-31T04:47:56.683Z,97977.12
2023-01-31T04:49:00.148Z,97981.41
2023-01-31T04:50:03.949Z,97997.13
2023-01-31T04:51:07.393Z,97979.44
2023-01-31T04:52:11.040Z,97986.41
2023-01-31T04:53:14.204Z,97984.00
2023-01-31T04:54:17.275Z,97985.78
2023-01-31T04:55:20.616Z,97982.44
2023-01-31T04:56:24.130Z,97985.41
2023-01-31T04:57:27.341Z,97979.06
2023-01-31T04:58:31.666Z,97985.78
2023-01-31T04:59:35.025Z,97985.88
2023-01-31T05:00:38.316Z,97984.47
2023-01-31T05:01:42.423Z,97987.66
2023-01-31T05:02:45.869Z,97983.84
2023-01-31T05:03:49.006Z,97986.09
2023-01-31T05:04:52.200Z,97976.69
2023-01-31T05:05:55.183Z,97980.41
2023-01-31T05:06:58.384Z,97980.41
2023-01-31T05:08:01.399Z,97976.88
2023-01-31T05:09:04.638Z,97979.47
2023-01-31T05:10:08.324Z,97981.34
2023-01-31T05:11:11.948Z,97965.63
2023-01-31T05:12:15.025Z,97978.97
2023-01-31T05:13:18.068Z,97984.38
2023-01-31T05:14:21.422Z,97973.37
2023-01-31T05:15:24.600Z,97980.00
2023-01-31T05:16:27.748Z,97970.78
2023-01-31T05:17:31.451Z,97977.88
2023-01-31T05:18:38.237Z,97987.13
2023-01-31T05:19:43.876Z,97977.34
2023-01-31T05:20:50.383Z,97960.84
2023-01-31T05:21:59.277Z,97991.72
2023-01-31T05:23:03.659Z,97992.50
2023-01-31T05:24:08.595Z,97994.84
2023-01-31T05:25:11.783Z,97999.53
2023-01-31T05:26:15.119Z,97999.53
2023-01-31T05:27:19.700Z,97985.41
2023-01-31T05:28:24.267Z,98002.69
2023-01-31T05:29:32.825Z,97984.47
2023-01-31T05:30:36.424Z,97987.81
2023-01-31T05:31:39.985Z,97991.03
2023-01-31T05:32:46.107Z,97981.47
2023-01-31T05:33:49.549Z,97978.28
2023-01-31T05:34:52.894Z,97988.50
2023-01-31T05:35:55.894Z,97980.22
2023-01-31T05:36:59.877Z,97991.31
2023-01-31T05:38:03.392Z,97976.41
2023-01-31T05:39:06.923Z,97969.59
2023-01-31T05:40:15.089Z,97986.09
2023-01-31T05:41:18.338Z,97985.75
2023-01-31T05:42:21.333Z,97991.47
2023-01-31T05:43:24.341Z,97985.53
2023-01-31T05:44:28.035Z,97991.25
2023-01-31T05:45:32.492Z,97984.19
2023-01-31T05:46:35.607Z,97983.16
2023-01-31T05:47:38.786Z,97984.97
2023-01-31T05:48:41.817Z,97989.91
2023-01-31T05:49:45.108Z,97983.63
2023-01-31T05:50:51.218Z,98001.00
2023-01-31T05:51:54.337Z,97994.81
2023-01-31T05:53:09.533Z,97986.00
2023-01-31T05:54:12.895Z,97989.50
2023-01-31T05:55:15.953Z,97996.78
2023-01-31T05:56:19.015Z,98000.38
2023-01-31T05:57:22.454Z,97992.19
2023-01-31T05:58:25.515Z,97996.31
2023-01-31T05:59:31.134Z,97987.09
2023-01-31T06:00:34.388Z,97990.59
2023-01-31T06:01:37.887Z,97992.25
2023-01-31T06:02:42.186Z,97994.28
2023-01-31T06:03:45.321Z,97982.09
2023-01-31T06:04:49.578Z,97982.28
2023-01-31T06:05:52.854Z,97982.03
2023-01-31T06:06:56.531Z,97994.91
2023-01-31T06:08:00.165Z,97992.81
2023-01-31T06:09:03.620Z,97980.47
2023-01-31T06:10:09.425Z,97982.34
2023-01-31T06:11:13.464Z,97999.91
2023-01-31T06:12:16.490Z,97997.03
2023-01-31T06:13:19.568Z,97974.59
2023-01-31T06:14:22.916Z,97996.72
2023-01-31T06:15:26.049Z,97992.66
2023-01-31T06:16:29.664Z,97992.19
2023-01-31T06:17:33.036Z,97995.72
2023-01-31T06:18:36.642Z,97989.91
2023-01-31T06:19:39.701Z,97991.50
2023-01-31T06:20:44.333Z,98008.78
2023-01-31T06:21:47.982Z,98003.22
2023-01-31T06:22:51.224Z,98013.38
2023-01-31T06:23:54.331Z,98003.06
2023-01-31T06:24:58.400Z,98018.38
2023-01-31T06:26:01.742Z,98018.22
2023-01-31T06:27:05.104Z,98013.59
2023-01-31T06:28:08.330Z,98005.00
2023-01-31T06:29:11.486Z,98015.78
2023-01-31T06:30:14.859Z,98029.63
2023-01-31T06:31:18.627Z,98017.19
2023-01-31T06:32:21.877Z,98021.56
2023-01-31T06:33:42.120Z,98021.31
2023-01-31T06:34:48.039Z,98030.75
2023-01-31T06:35:54.706Z,98017.22
2023-01-31T06:36:59.491Z,98022.81
2023-01-31T06:38:02.766Z,98022.50
2023-01-31T06:39:06.687Z,98023.75
2023-01-31T06:40:10.876Z,98029.13
2023-01-31T06:41:13.991Z,98024.53
2023-01-31T06:42:17.024Z,98029.63
2023-01-31T06:43:20.265Z,98029.00
2023-01-31T06:44:23.305Z,98029.63
2023-01-31T06:45:26.624Z,98028.53
2023-01-31T06:46:30.352Z,98033.13
2023-01-31T06:47:33.930Z,98037.03
2023-01-31T06:48:37.049Z,98035.66
2023-01-31T06:49:40.251Z,98042.37
2023-01-31T06:50:44.834Z,98050.44
2023-01-31T06:51:48.081Z,98037.75
2023-01-31T06:52:51.504Z,98050.09
2023-01-31T06:53:56.714Z,98060.66
2023-01-31T06:54:59.972Z,98052.38
2023-01-31T06:56:03.135Z,98058.31
2023-01-31T06:57:06.596Z,98064.28
2023-01-31T06:58:09.758Z,98059.44
2023-01-31T06:59:12.946Z,98057.63
2023-01-31T07:00:18.965Z,98058.56
2023-01-31T07:01:24.546Z,98068.09
2023-01-31T07:02:27.957Z,98058.59
2023-01-31T07:03:31.522Z,98072.72
2023-01-31T07:04:35.104Z,98067.22
2023-01-31T07:05:38.208Z,98070.06
2023-01-31T07:06:41.319Z,98066.69
2023-01-31T07:07:44.683Z,98074.50
2023-01-31T07:08:47.891Z,98078.97
2023-01-31T07:09:51.291Z,98085.06
2023-01-31T07:10:54.442Z,98079.84
2023-01-31T07:11:57.724Z,98087.69
2023-01-31T07:13:01.803Z,98079.47
2023-01-31T07:14:05.332Z,98071.88
2023-01-31T07:15:09.752Z,98079.94
2023-01-31T07:16:12.816Z,98088.78
2023-01-31T07:17:16.187Z,98087.28
2023-01-31T07:18:19.433Z,98087.84
2023-01-31T07:19:22.561Z,98087.37
2023-01-31T07:20:26.173Z,98091.19
2023-01-31T07:21:30.247Z,98092.53
2023-01-31T07:22:33.348Z,98095.91
2023-01-31T07:23:36.496Z,98086.28
2023-01-31T07:24:39.582Z,98097.00
2023-01-31T07:25:42.859Z,98094.19
2023-01-31T07:26:46.131Z,98096.84
2023-01-31T07:27:49.132Z,98097.41
2023-01-31T07:28:53.186Z,98086.59
2023-01-31T07:29:56.454Z,98091.91
2023-01-31T07:31:12.364Z,98096.53
2023-01-31T07:32:16.177Z,98091.38
2023-01-31T07:33:19.531Z,98087.69
2023-01-31T07:34:24.150Z,98087.53
2023-01-31T07:35:28.264Z,98080.97
2023-01-31T07:36:32.377Z,98088.16
2023-01-31T07:37:35.612Z,98106.50
2023-01-31T07:38:38.840Z,98092.72
2023-01-31T07:39:45.796Z,98102.63
2023-01-31T07:40:49.327Z,98095.75
2023-01-31T07:41:52.421Z,98106.62
2023-01-31T07:43:00.716Z,98098.56
2023-01-31T07:44:03.657Z,98109.53
2023-01-31T07:45:22.542Z,98112.00
2023-01-31T07:46:26.733Z,98113.03
2023-01-31T07:47:29.851Z,98108.75
2023-01-31T07:48:33.069Z,98098.31
2023-01-31T07:49:36.406Z,98118.22
2023-01-31T07:50:39.704Z,98093.41
2023-01-31T07:51:43.220Z,98101.25
2023-01-31T07:52:51.246Z,98123.47
2023-01-31T07:53:54.331Z,98099.03
2023-01-31T07:54:57.665Z,98100.63
2023-01-31T07:56:12.194Z,98106.38
2023-01-31T07:57:18.101Z,98111.94
2023-01-31T07:58:21.217Z,98119.84
2023-01-31T07:59:24.349Z,98111.84
2023-01-31T08:00:45.982Z,98111.84
2023-01-31T08:02:07.903Z,98127.13
2023-01-31T08:03:34.366Z,98118.66
2023-01-31T08:04:37.584Z,98126.41
2023-01-31T08:05:40.832Z,98127.44
2023-01-31T08:06:46.405Z,98118.75
2023-01-31T08:08:09.606Z,98133.06
2023-01-31T08:09:13.068Z,98137.38
2023-01-31T08:10:18.400Z,98137.41
2023-01-31T08:11:21.880Z,98126.94
2023-01-31T08:12:25.129Z,98134.03
2023-01-31T08:13:28.415Z,98143.41
2023-01-31T08:14:31.708Z,98139.66
2023-01-31T08:15:35.091Z,98146.06
2023-01-31T08:16:38.908Z,98144.00
2023-01-31T08:17:42.110Z,98149.91
2023-01-31T08:18:45.435Z,98136.88
2023-01-31T08:19:51.121Z,98138.91
2023-01-31T08:20:54.418Z,98148.91
2023-01-31T08:21:57.609Z,98154.25
2023-01-31T08:23:00.740Z,98146.44
2023-01-31T08:24:04.116Z,98147.31
2023-01-31T08:25:07.589Z,98151.41
2023-01-31T08:26:19.514Z,98153.53
2023-01-31T08:27:22.966Z,98170.50
2023-01-31T08:28:27.184Z,98172.50
2023-01-31T08:29:30.629Z,98176.84
2023-01-31T08:30:34.148Z,98178.22
2023-01-31T08:31:37.377Z,98177.81
2023-01-31T08:32:40.474Z,98189.19
2023-01-31T08:33:43.482Z,98187.13
2023-01-31T08:34:46.969Z,98185.28
2023-01-31T08:35:50.249Z,98193.44
2023-01-31T08:36:56.801Z,98195.94
2023-01-31T08:38:14.437Z,98204.25
2023-01-31T08:39:18.966Z,98201.66
2023-01-31T08:40:22.057Z,98215.94
2023-01-31T08:41:27.409Z,98212.91
2023-01-31T08:42:32.715Z,98222.38
2023-01-31T08:43:53.819Z,98212.38
2023-01-31T08:44:57.877Z,98222.03
2023-01-31T08:46:01.110Z,98224.59
2023-01-31T08:47:04.689Z,98229.78
2023-01-31T08:48:08.131Z,98240.41
2023-01-31T08:49:11.869Z,98246.94
2023-01-31T08:50:27.344Z,98245.59
2023-01-31T08:51:31.752Z,98249.28
2023-01-31T08:52:35.835Z,98248.37
2023-01-31T08:53:41.379Z,98249.25
2023-01-31T08:54:44.681Z,98255.28
2023-01-31T08:55:47.987Z,98255.53
2023-01-31T08:56:51.228Z,98258.97
2023-01-31T08:57:59.754Z,98266.72
2023-01-31T08:59:03.567Z,98256.19
2023-01-31T09:00:08.853Z,98269.75
2023-01-31T09:01:17.290Z,98259.81
2023-01-31T09:02:20.573Z,98267.09
2023-01-31T09:03:23.660Z,98260.72
2023-01-31T09:04:26.606Z,98269.69
2023-01-31T09:05:31.187Z,98263.59
2023-01-31T09:06:34.502Z,98276.91
2023-01-31T09:07:37.551Z,98276.19
2023-01-31T09:08:40.930Z,98266.03
2023-01-31T09:09:44.173Z,98274.19
2023-01-31T09:10:54.762Z,98276.88
2023-01-31T09:11:57.825Z,98277.28
2023-01-31T09:13:01.598Z,98276.25
2023-01-31T09:14:04.781Z,98281.41
2023-01-31T09:15:08.315Z,98277.16
2023-01-31T09:16:14.115Z,98275.31
2023-01-31T09:17:17.411Z,98275.41
2023-01-31T09:18:20.738Z,98286.16
2023-01-31T09:19:23.944Z,98272.84
2023-01-31T09:20:27.068Z,98280.16
2023-01-31T09:21:31.032Z,98272.63
2023-01-31T09:22:35.305Z,98271.78
2023-01-31T09:23:41.982Z,98282.09
2023-01-31T09:24:47.271Z,98281.53
2023-01-31T09:25:57.147Z,98284.63
2023-01-31T09:27:00.173Z,98280.94
2023-01-31T09:28:05.659Z,98289.47
2023-01-31T09:29:08.737Z,98283.72
2023-01-31T09:30:12.325Z,98282.53
2023-01-31T09:31:17.716Z,98284.69
2023-01-31T09:32:21.653Z,98279.25
2023-01-31T09:33:24.977Z,98284.19
2023-01-31T09:34:28.609Z,98284.03
2023-01-31T09:35:34.965Z,98280.88
2023-01-31T09:36:37.965Z,98272.94
2023-01-31T09:37:41.203Z,98284.31
2023-01-31T09:38:44.932Z,98281.25
2023-01-31T09:39:48.096Z,98296.28
2023-01-31T09:40:51.937Z,98284.97
2023-01-31T09:42:01.925Z,98285.81
2023-01-31T09:43:06.149Z,98288.47
2023-01-31T09:44:24.708Z,98291.66
2023-01-31T09:45:34.230Z,98308.09
2023-01-31T09:46:45.077Z,98287.75
2023-01-31T09:47:52.801Z,98298.56
2023-01-31T09:48:58.844Z,98299.13
2023-01-31T09:50:09.195Z,98298.56
2023-01-31T09:51:14.994Z,98295.81
2023-01-31T09:52:18.140Z,98300.53
2023-01-31T09:53:23.155Z,98296.75
2023-01-31T09:54:45.620Z,98294.53
2023-01-31T09:56:13.879Z,98297.91
2023-01-31T09:57:38.327Z,98292.50
2023-01-31T09:58:59.921Z,98293.41
2023-01-31T10:00:40.055Z,98282.69
2023-01-31T10:01:58.143Z,98287.13
2023-01-31T10:03:26.952Z,98296.44
2023-01-31T10:05:07.451Z,98290.03
2023-01-31T10:06:23.584Z,98284.13
2023-01-31T10:07:37.954Z,98275.78
2023-01-31T10:09:04.381Z,98284.66
2023-01-31T10:10:23.039Z,98278.97
2023-01-31T10:11:39.616Z,98270.37
2023-01-31T10:12:58.249Z,98283.63
2023-01-31T10:14:07.444Z,98272.84
2023-01-31T10:15:22.623Z,98278.91
2023-01-31T10:16:38.491Z,98279.41
2023-01-31T10:17:51.131Z,98270.31
2023-01-31T10:19:08.285Z,98280.13
2023-01-31T10:20:45.364Z,98291.22
2023-01-31T10:21:54.604Z,98272.25
2023-01-31T10:23:01.303Z,98289.72
2023-01-31T10:24:12.821Z,98288.34
2023-01-31T10:25:39.261Z,98274.81
2023-01-31T10:26:45.876Z,98284.13
2023-01-31T10:27:56.271Z,98275.59
2023-01-31T10:29:12.469Z,98264.31
2023-01-31T10:30:27.108Z,98276.31
2023-01-31T10:31:36.655Z,98262.13
2023-01-31T10:32:45.689Z,98265.41
2023-01-31T10:33:52.924Z,98262.63
2023-01-31T10:35:31.937Z,98270.31
2023-01-31T10:36:44.865Z,98273.97
2023-01-31T10:37:56.883Z,98264.47
2023-01-31T10:39:26.468Z,98262.09
2023-01-31T10:40:38.011Z,98260.47
2023-01-31T10:41:48.222Z,98259.34
2023-01-31T10:43:35.404Z,98262.00
2023-01-31T10:44:56.111Z,98270.69
2023-01-31T10:46:01.088Z,98270.06
2023-01-31T10:47:11.585Z,98275.62
2023-01-31T10:48:27.334Z,98275.56
2023-01-31T10:49:31.054Z,98267.62
2023-01-31T10:51:07.013Z,98270.53
2023-01-31T10:52:41.264Z,98281.66
2023-01-31T10:53:55.767Z,98276.97
2023-01-31T10:55:09.455Z,98286.13
2023-01-31T10:56:45.335Z,98277.25
2023-01-31T10:57:49.954Z,98261.34
2023-01-31T10:58:53.565Z,98263.78
2023-01-31T10:59:57.024Z,98262.81
2023-01-31T11:01:00.293Z,98272.63
2023-01-31T11:02:05.028Z,98258.97
2023-01-31T11:03:10.833Z,98258.72
2023-01-31T11:04:39.266Z,98252.31
2023-01-31T11:05:50.618Z,98257.03
2023-01-31T11:06:54.774Z,98250.75
2023-01-31T11:08:07.087Z,98249.22
2023-01-31T11:09:12.223Z,98247.72
2023-01-31T11:10:30.119Z,98249.47
2023-01-31T11:11:33.102Z,98250.16
2023-01-31T11:12:53.342Z,98257.47
2023-01-31T11:14:07.395Z,98243.62
2023-01-31T11:15:19.266Z,98251.44
2023-01-31T11:16:24.464Z,98254.47
2023-01-31T11:17:28.042Z,98260.78
2023-01-31T11:18:44.294Z,98263.22
2023-01-31T11:19:54.772Z,98252.34
2023-01-31T11:21:00.135Z,98264.09
2023-01-31T11:22:04.222Z,98261.50
2023-01-31T11:23:07.752Z,98251.62
2023-01-31T11:24:25.872Z,98249.56
2023-01-31T11:25:32.458Z,98256.25
2023-01-31T11:26:40.099Z,98257.16
2023-01-31T11:27:44.736Z,98252.94
2023-01-31T11:28:55.682Z,98257.53
2023-01-31T11:30:00.490Z,98259.34
2023-01-31T11:31:06.895Z,98253.88
2023-01-31T11:32:37.541Z,98235.94
2023-01-31T11:34:05.010Z,98246.00
2023-01-31T11:35:25.541Z,98245.63
2023-01-31T11:36:42.394Z,98239.38
2023-01-31T11:37:59.533Z,98241.69
2023-01-31T11:39:31.905Z,98235.88
2023-01-31T11:40:38.737Z,98243.72
2023-01-31T11:41:42.231Z,98246.69
2023-01-31T11:43:15.140Z,98240.81
2023-01-31T11:44:22.148Z,98248.44
2023-01-31T11:45:32.442Z,98242.94
2023-01-31T11:46:43.941Z,98243.31
2023-01-31T11:47:59.452Z,98234.94
2023-01-31T11:49:15.012Z,98244.69
2023-01-31T11:50:34.796Z,98229.91
2023-01-31T11:51:40.741Z,98237.34
2023-01-31T11:52:43.926Z,98232.31
2023-01-31T11:53:51.234Z,98241.41
2023-01-31T11:55:08.665Z,98237.75
2023-01-31T11:56:31.222Z,98234.69
2023-01-31T11:57:39.947Z,98230.28
2023-01-31T11:58:46.451Z,98234.97
2023-01-31T11:59:55.896Z,98233.66
2023-01-31T12:01:19.234Z,98228.28
2023-01-31T12:02:25.688Z,98220.72
2023-01-31T12:03:31.246Z,98223.09
2023-01-31T12:04:42.371Z,98225.31
2023-01-31T12:05:50.643Z,98217.78
2023-01-31T12:07:00.103Z,98229.75
2023-01-31T12:08:05.090Z,98228.81
2023-01-31T12:09:22.952Z,98217.63
2023-01-31T12:10:40.655Z,98229.28
2023-01-31T12:11:55.528Z,98226.63
2023-01-31T12:13:17.855Z,98224.03
2023-01-31T12:14:22.783Z,98241.22
2023-01-31T12:15:26.885Z,98230.84
2023-01-31T12:16:31.643Z,98227.16
2023-01-31T12:17:43.708Z,98229.69
2023-01-31T12:19:09.300Z,98223.34
2023-01-31T12:20:44.257Z,98221.81
2023-01-31T12:22:22.803Z,98225.28
2023-01-31T12:23:33.016Z,98234.66
2023-01-31T12:25:33.757Z,98224.28
2023-01-31T12:26:51.406Z,98227.47
2023-01-31T12:28:27.927Z,98243.06
2023-01-31T12:30:02.294Z,98239.16
2023-01-31T12:31:22.709Z,98227.94
2023-01-31T12:32:52.437Z,98231.81
2023-01-31T12:34:14.306Z,98228.97
2023-01-31T12:35:46.466Z,98229.06
2023-01-31T12:37:16.248Z,98235.31
2023-01-31T12:38:42.998Z,98238.69
2023-01-31T12:40:25.237Z,98229.81
2023-01-31T12:41:37.248Z,98229.09
2023-01-31T12:43:02.297Z,98229.41
2023-01-31T12:44:36.139Z,98226.56
2023-01-31T12:46:17.907Z,98238.59
2023-01-31T12:47:45.426Z,98245.09
2023-01-31T12:49:15.735Z,98244.75
2023-01-31T12:50:30.865Z,98245.78
2023-01-31T12:51:52.551Z,98245.81
2023-01-31T12:53:21.118Z,98247.56
2023-01-31T12:54:29.984Z,98239.34
2023-01-31T12:55:52.793Z,98240.81
2023-01-31T12:57:12.480Z,98245.72
2023-01-31T12:58:29.377Z,98257.94
2023-01-31T12:59:51.355Z,98257.63
2023-01-31T13:01:00.701Z,98261.41
2023-01-31T13:02:30.345Z,98261.84
2023-01-31T13:03:51.378Z,98260.12
2023-01-31T13:05:17.539Z,98274.44
2023-01-31T13:06:28.687Z,98268.59
2023-01-31T13:07:56.154Z,98271.84
2023-01-31T13:09:21.600Z,98273.63
2023-01-31T13:10:39.473Z,98262.50
2023-01-31T13:11:49.038Z,98269.88
2023-01-31T13:12:52.196Z,98275.88
2023-01-31T13:14:01.132Z,98279.72
2023-01-31T13:15:27.056Z,98267.59
2023-01-31T13:16:35.372Z,98271.03
2023-01-31T13:17:41.078Z,98255.59
2023-01-31T13:18:48.415Z,98264.66
2023-01-31T13:19:59.441Z,98272.44
2023-01-31T13:21:13.617Z,98271.50
2023-01-31T13:22:32.713Z,98276.84
2023-01-31T13:23:47.549Z,98280.44
2023-01-31T13:25:00.521Z,98271.09
2023-01-31T13:26:44.772Z,98279.37
2023-01-31T13:27:59.229Z,98281.06
2023-01-31T13:29:10.314Z,98280.19
2023-01-31T13:30:45.688Z,98276.72
2023-01-31T13:31:59.974Z,98285.47
2023-01-31T13:33:18.283Z,98283.91
2023-01-31T13:34:41.215Z,98285.25
2023-01-31T13:35:49.065Z,98278.59